Time;durP1;ratioP1;P1;durP2;ratioP2;P2;SDS_P1;SDS_P2;PMS_P1;PMS_P2;Temp;Humidity;BMP_temperature;BMP_pressure;BME280_temperature;BME280_humidity;BME280_pressure;Samples;Min_cycle;Max_cycle;Signal;HPM_P1;HPM_P2
2022/08/25 00:00:09;;;;;;;10.10;2.85;;;22.70;99.90;;;;;;5069513;28;20209;-71
2022/08/25 00:02:36;;;;;;;8.18;2.45;;;22.60;99.90;;;;;;5059213;28;20579;-70
2022/08/25 00:05:04;;;;;;;7.07;3.80;;;22.60;99.90;;;;;;5072844;28;20300;-71
2022/08/25 00:07:31;;;;;;;8.10;3.00;;;22.60;99.90;;;;;;5073044;28;20574;-71
2022/08/25 00:09:57;;;;;;;9.13;3.13;;;22.50;99.90;;;;;;5073188;28;20205;-69
2022/08/25 00:12:24;;;;;;;10.02;2.55;;;22.60;99.90;;;;;;5071186;28;20213;-70
2022/08/25 00:14:51;;;;;;;7.68;2.97;;;22.50;99.90;;;;;;5071458;28;20217;-71
2022/08/25 00:17:20;;;;;;;5.55;2.42;;;22.60;99.90;;;;;;5073552;28;20654;-70
2022/08/25 00:19:47;;;;;;;8.60;3.08;;;22.60;99.90;;;;;;5071961;28;20205;-70
2022/08/25 00:22:13;;;;;;;9.00;2.75;;;22.50;99.90;;;;;;5070110;28;20750;-70
2022/08/25 00:24:40;;;;;;;8.27;2.65;;;22.50;99.90;;;;;;5072764;28;20208;-69
2022/08/25 00:27:07;;;;;;;6.03;2.60;;;22.50;99.90;;;;;;5071861;28;20205;-69
2022/08/25 00:29:36;;;;;;;9.32;2.65;;;22.50;99.90;;;;;;5070469;28;20236;-69
2022/08/25 00:32:05;;;;;;;7.50;2.30;;;22.50;99.90;;;;;;5070317;28;20205;-68
2022/08/25 00:34:35;;;;;;;5.93;2.40;;;22.50;99.90;;;;;;5068762;28;20202;-69
2022/08/25 00:37:05;;;;;;;9.18;2.65;;;22.60;99.90;;;;;;5072681;28;20595;-68
2022/08/25 00:39:33;;;;;;;6.68;2.22;;;22.60;99.90;;;;;;5072420;28;20559;-69
2022/08/25 00:42:00;;;;;;;8.68;2.85;;;22.60;99.90;;;;;;5072200;28;20264;-69
2022/08/25 00:44:32;;;;;;;8.25;2.75;;;22.60;99.90;;;;;;5070487;28;20209;-68
2022/08/25 00:47:00;;;;;;;12.57;3.00;;;22.60;99.90;;;;;;5073350;28;20529;-69
2022/08/25 00:49:31;;;;;;;6.57;2.53;;;22.60;99.90;;;;;;5071412;28;20205;-69
2022/08/25 00:52:03;;;;;;;8.68;2.72;;;22.60;99.90;;;;;;5070837;28;20569;-70
2022/08/25 00:54:33;;;;;;;7.70;3.20;;;22.60;99.90;;;;;;5069248;28;20201;-70
2022/08/25 00:57:02;;;;;;;10.48;3.03;;;22.60;99.90;;;;;;5071848;28;20233;-70
2022/08/25 00:59:30;;;;;;;6.07;2.67;;;22.60;99.90;;;;;;5072002;28;20651;-69
2022/08/25 01:01:58;;;;;;;10.20;3.53;;;22.60;99.90;;;;;;5071517;28;20205;-69
2022/08/25 01:04:26;;;;;;;9.27;2.80;;;22.60;99.90;;;;;;5071047;28;20217;-69
2022/08/25 01:06:54;;;;;;;9.93;3.10;;;22.60;99.90;;;;;;5071677;28;20213;-70
2022/08/25 01:09:22;;;;;;;8.07;2.60;;;22.60;99.90;;;;;;5069380;28;20216;-69
2022/08/25 01:11:49;;;;;;;10.70;2.97;;;22.60;99.90;;;;;;5071863;28;20201;-69
2022/08/25 01:14:18;;;;;;;14.55;2.97;;;22.60;99.90;;;;;;5060565;28;20209;-69
2022/08/25 01:16:45;;;;;;;13.48;2.85;;;22.60;99.90;;;;;;5069760;28;20299;-68
2022/08/25 01:19:14;;;;;;;12.23;2.80;;;22.60;99.90;;;;;;5070072;28;20216;-70
2022/08/25 01:21:47;;;;;;;9.20;2.95;;;22.70;99.90;;;;;;5071455;28;20292;-69
2022/08/25 01:24:22;;;;;;;6.80;2.42;;;22.60;99.90;;;;;;5066481;28;20205;-70
2022/08/25 01:26:49;;;;;;;7.65;2.80;;;22.60;99.90;;;;;;5067694;28;20210;-69
2022/08/25 01:29:24;;;;;;;14.32;3.33;;;22.60;99.90;;;;;;5070240;28;20255;-67
2022/08/25 01:31:56;;;;;;;12.23;3.30;;;22.60;99.90;;;;;;5070223;28;20581;-69
2022/08/25 01:34:23;;;;;;;8.73;3.38;;;22.60;99.90;;;;;;5069488;28;20620;-70
2022/08/25 01:36:52;;;;;;;12.05;3.55;;;22.70;99.90;;;;;;5069331;28;20624;-69
2022/08/25 01:39:20;;;;;;;11.13;3.50;;;22.70;99.90;;;;;;5070223;28;20296;-69
2022/08/25 01:42:02;;;;;;;11.18;3.20;;;22.70;99.90;;;;;;5069772;28;20581;-70
2022/08/25 01:44:30;;;;;;;8.73;3.72;;;22.70;99.90;;;;;;5067492;28;20946;-69
2022/08/25 01:46:58;;;;;;;13.70;4.07;;;22.70;99.90;;;;;;5070011;28;20204;-70
2022/08/25 01:49:25;;;;;;;8.88;3.38;;;22.70;99.90;;;;;;5071275;28;20201;-69
2022/08/25 01:51:57;;;;;;;10.38;3.53;;;22.70;99.90;;;;;;5071856;28;20205;-70
2022/08/25 01:54:24;;;;;;;11.35;3.58;;;22.70;99.90;;;;;;5069895;28;20205;-69
2022/08/25 01:56:51;;;;;;;13.05;4.20;;;22.70;99.90;;;;;;5068408;28;20205;-69
2022/08/25 01:59:20;;;;;;;9.27;3.58;;;22.70;99.90;;;;;;5069866;28;20217;-69
2022/08/25 02:01:46;;;;;;;10.93;4.28;;;22.70;99.90;;;;;;5071399;28;20205;-69
2022/08/25 02:04:13;;;;;;;10.20;3.97;;;22.70;99.90;;;;;;5069225;28;20205;-70
2022/08/25 02:06:40;;;;;;;7.22;3.63;;;22.70;99.90;;;;;;5069887;28;20216;-69
2022/08/25 02:09:11;;;;;;;11.10;3.45;;;22.70;99.90;;;;;;5071114;28;20247;-69
2022/08/25 02:11:40;;;;;;;13.98;4.38;;;22.80;99.90;;;;;;5071270;28;20197;-69
2022/08/25 02:14:10;;;;;;;13.63;4.05;;;22.80;99.90;;;;;;5069219;28;20212;-70
2022/08/25 02:16:39;;;;;;;9.90;4.28;;;22.80;99.90;;;;;;5068266;28;20215;-69
2022/08/25 02:19:08;;;;;;;17.40;4.10;;;22.80;99.90;;;;;;5070020;28;20231;-68
2022/08/25 02:21:35;;;;;;;12.57;3.75;;;22.80;99.90;;;;;;5070833;28;20231;-69
2022/08/25 02:24:03;;;;;;;14.93;4.47;;;22.80;99.90;;;;;;5073580;28;20205;-70
2022/08/25 02:26:31;;;;;;;14.60;4.45;;;22.80;99.90;;;;;;5074059;28;20205;-69
2022/08/25 02:28:58;;;;;;;16.08;4.63;;;23.20;99.90;;;;;;5072100;28;20642;-69
2022/08/25 02:31:26;;;;;;;11.25;4.20;;;22.70;99.90;;;;;;5073286;28;20542;-69
2022/08/25 02:33:53;;;;;;;16.38;4.35;;;22.70;99.90;;;;;;5072758;28;20201;-68
2022/08/25 02:36:22;;;;;;;10.77;3.95;;;22.70;99.90;;;;;;5072836;28;20237;-68
2022/08/25 02:38:49;;;;;;;15.02;4.95;;;22.80;99.90;;;;;;5074209;28;20232;-68
2022/08/25 02:41:19;;;;;;;12.27;5.07;;;22.80;99.90;;;;;;5074023;28;20209;-68
2022/08/25 02:43:49;;;;;;;12.60;3.97;;;22.80;99.90;;;;;;5071122;28;20205;-69
2022/08/25 02:46:18;;;;;;;11.65;4.13;;;22.80;99.90;;;;;;5072196;28;20213;-70
2022/08/25 02:48:46;;;;;;;14.68;4.43;;;22.80;99.90;;;;;;5073497;28;20205;-69
2022/08/25 02:51:13;;;;;;;12.82;4.50;;;22.80;99.90;;;;;;5073868;28;20669;-68
2022/08/25 02:53:44;;;;;;;16.33;4.60;;;22.90;99.90;;;;;;5073317;28;20208;-70
2022/08/25 02:56:12;;;;;;;14.02;4.35;;;22.90;99.90;;;;;;5073378;28;20214;-69
2022/08/25 02:58:40;;;;;;;12.90;4.63;;;22.80;99.90;;;;;;5073118;28;20232;-69
2022/08/25 03:01:10;;;;;;;11.27;4.25;;;22.80;99.90;;;;;;5073530;28;20556;-70
2022/08/25 03:03:39;;;;;;;15.18;4.70;;;22.80;99.90;;;;;;5071941;28;20202;-70
2022/08/25 03:06:06;;;;;;;17.08;5.10;;;22.80;99.90;;;;;;5071963;28;20201;-70
2022/08/25 03:08:33;;;;;;;14.93;4.90;;;22.80;99.90;;;;;;5073783;28;20254;-69
2022/08/25 03:11:00;;;;;;;8.32;4.28;;;22.80;99.90;;;;;;5073038;28;20205;-69
2022/08/25 03:13:26;;;;;;;12.18;4.47;;;22.80;99.90;;;;;;5071720;28;20621;-69
2022/08/25 03:15:54;;;;;;;15.73;5.05;;;22.80;99.90;;;;;;5071103;28;20205;-69
2022/08/25 03:18:22;;;;;;;17.70;5.38;;;22.80;99.90;;;;;;5073101;28;20276;-70
2022/08/25 03:20:49;;;;;;;13.23;5.47;;;22.80;99.90;;;;;;5071934;28;20213;-70
2022/08/25 03:23:16;;;;;;;16.90;4.95;;;22.80;99.90;;;;;;5070564;28;20232;-69
2022/08/25 03:28:29;;;;;;;13.48;5.10;;;22.80;99.90;;;;;;5071723;28;20574;-69
2022/08/25 03:30:59;;;;;;;14.73;5.18;;;22.80;99.90;;;;;;5073094;28;20203;-70
2022/08/25 03:33:27;;;;;;;12.35;5.20;;;22.80;99.90;;;;;;5070956;28;20205;-70
2022/08/25 03:35:54;;;;;;;13.60;4.45;;;22.80;99.90;;;;;;5072423;28;20252;-69
2022/08/25 03:38:21;;;;;;;16.42;4.75;;;22.80;99.90;;;;;;5071545;28;20229;-69
2022/08/25 03:40:48;;;;;;;10.52;5.15;;;22.80;99.90;;;;;;5072886;28;20675;-69
2022/08/25 03:43:15;;;;;;;10.30;4.82;;;22.80;99.90;;;;;;5069834;28;20209;-69
2022/08/25 03:45:44;;;;;;;10.00;5.25;;;22.80;99.90;;;;;;5069662;28;20197;-69
2022/08/25 03:48:11;;;;;;;12.30;4.60;;;22.70;99.90;;;;;;5072001;28;20215;-69
2022/08/25 03:50:44;;;;;;;14.55;5.07;;;22.80;99.90;;;;;;5072947;28;20204;-69
2022/08/25 03:53:11;;;;;;;17.83;4.45;;;22.80;99.90;;;;;;5072700;28;20213;-69
2022/08/25 03:55:38;;;;;;;15.05;5.13;;;22.80;99.90;;;;;;5070207;28;20197;-68
2022/08/25 03:58:05;;;;;;;10.70;5.05;;;22.80;99.90;;;;;;5071914;28;20228;-70
2022/08/25 04:00:32;;;;;;;15.50;5.47;;;22.70;99.90;;;;;;5071571;28;20209;-70
2022/08/25 04:02:59;;;;;;;13.95;4.68;;;22.70;99.90;;;;;;5072475;28;20296;-69
2022/08/25 04:05:25;;;;;;;16.23;4.57;;;22.70;99.90;;;;;;5070727;28;20201;-69
2022/08/25 04:07:54;;;;;;;16.27;5.55;;;22.70;99.90;;;;;;5072574;28;20407;-69
2022/08/25 04:10:21;;;;;;;15.35;4.63;;;22.70;99.90;;;;;;5072011;28;20213;-69
2022/08/25 04:12:48;;;;;;;19.50;5.45;;;22.80;99.90;;;;;;5071052;28;20216;-69
2022/08/25 04:15:16;;;;;;;16.65;5.40;;;22.70;99.90;;;;;;5068612;28;20258;-70
2022/08/25 04:17:42;;;;;;;22.17;5.18;;;22.70;99.90;;;;;;5070705;28;20704;-69
2022/08/25 04:20:11;;;;;;;16.23;4.95;;;22.70;99.90;;;;;;5072045;28;20212;-70
2022/08/25 04:22:38;;;;;;;16.33;5.47;;;22.70;99.90;;;;;;5072318;28;20216;-70
2022/08/25 04:25:08;;;;;;;14.93;4.80;;;22.80;99.90;;;;;;5069355;28;20514;-69
2022/08/25 04:27:36;;;;;;;16.10;5.75;;;22.70;99.90;;;;;;5071148;28;20231;-69
2022/08/25 04:30:04;;;;;;;15.18;5.38;;;22.80;99.90;;;;;;5072391;28;20212;-69
2022/08/25 04:32:31;;;;;;;17.15;5.30;;;22.80;99.90;;;;;;5070102;28;20216;-69
2022/08/25 04:34:58;;;;;;;15.07;6.07;;;22.80;99.90;;;;;;5070792;28;20229;-70
2022/08/25 04:37:25;;;;;;;12.20;5.50;;;22.80;99.90;;;;;;5072581;28;20197;-69
2022/08/25 04:39:52;;;;;;;15.50;5.55;;;22.80;99.90;;;;;;5070891;28;20608;-68
2022/08/25 04:42:20;;;;;;;19.50;6.70;;;22.80;99.90;;;;;;5070940;28;20217;-69
2022/08/25 04:44:47;;;;;;;18.70;5.75;;;22.80;99.90;;;;;;5067162;28;20884;-70
2022/08/25 04:47:14;;;;;;;17.60;5.97;;;22.80;99.90;;;;;;5066557;28;20239;-71
2022/08/25 04:49:41;;;;;;;18.33;6.07;;;23.00;99.90;;;;;;5070175;28;20202;-69
2022/08/25 04:52:08;;;;;;;16.50;5.80;;;23.00;99.90;;;;;;5061180;28;20216;-69
2022/08/25 04:54:34;;;;;;;19.65;5.57;;;23.00;99.90;;;;;;5071235;28;20210;-68
2022/08/25 04:57:01;;;;;;;20.42;5.78;;;23.00;99.90;;;;;;5070120;28;20210;-69
2022/08/25 04:59:30;;;;;;;16.42;5.80;;;23.10;99.90;;;;;;5071294;28;20216;-69
2022/08/25 05:01:57;;;;;;;14.18;5.50;;;23.10;99.90;;;;;;5068174;28;20206;-70
2022/08/25 05:04:24;;;;;;;15.75;6.40;;;23.20;99.90;;;;;;5069743;28;20209;-68
2022/08/25 05:06:51;;;;;;;15.13;5.97;;;23.20;99.90;;;;;;5069553;28;21059;-68
2022/08/25 05:09:17;;;;;;;24.48;6.28;;;23.30;99.90;;;;;;5071484;28;20212;-69
2022/08/25 05:11:44;;;;;;;26.88;6.50;;;23.30;99.90;;;;;;5070453;28;20209;-69
2022/08/25 05:14:14;;;;;;;22.98;6.05;;;23.30;99.90;;;;;;5068503;28;20210;-70
2022/08/25 05:16:42;;;;;;;26.15;6.60;;;23.30;99.90;;;;;;5065330;28;20626;-69
2022/08/25 05:19:09;;;;;;;23.67;6.57;;;23.40;99.90;;;;;;5069745;28;20221;-69
2022/08/25 05:21:36;;;;;;;17.90;6.03;;;23.40;99.90;;;;;;5070593;28;20232;-69
2022/08/25 05:24:04;;;;;;;16.08;6.13;;;23.50;99.90;;;;;;5071248;28;20209;-70
2022/08/25 05:26:32;;;;;;;19.95;6.38;;;23.50;99.90;;;;;;5071121;28;20300;-69
2022/08/25 05:29:02;;;;;;;18.77;6.20;;;23.60;99.90;;;;;;5071953;28;20694;-68
2022/08/25 05:31:29;;;;;;;17.40;6.00;;;23.60;99.90;;;;;;5070618;28;20665;-68
2022/08/25 05:33:59;;;;;;;27.13;7.00;;;23.60;99.90;;;;;;5067700;28;20210;-68
2022/08/25 05:36:27;;;;;;;25.42;7.55;;;23.70;99.90;;;;;;5068958;28;20244;-67
2022/08/25 05:38:54;;;;;;;16.65;6.90;;;23.80;99.90;;;;;;5070280;28;20743;-68
2022/08/25 05:41:25;;;;;;;19.20;7.05;;;24.00;99.90;;;;;;5070142;28;20205;-67
2022/08/25 05:43:52;;;;;;;20.15;7.03;;;24.00;99.90;;;;;;5066957;28;20626;-67
2022/08/25 05:46:21;;;;;;;17.63;6.75;;;24.10;99.90;;;;;;5066106;28;20212;-69
2022/08/25 05:48:48;;;;;;;22.45;6.38;;;24.20;99.90;;;;;;5054887;28;21017;-70
2022/08/25 05:51:16;;;;;;;22.30;6.97;;;24.30;99.90;;;;;;5068911;28;20213;-66
2022/08/25 05:53:45;;;;;;;25.23;6.78;;;24.30;99.90;;;;;;5068954;28;20209;-70
2022/08/25 05:56:13;;;;;;;22.25;6.53;;;24.40;99.90;;;;;;5067721;28;20232;-66
2022/08/25 05:58:42;;;;;;;19.45;6.75;;;24.50;99.90;;;;;;5067201;28;20677;-66
2022/08/25 06:03:55;;;;;;;21.38;6.85;;;24.70;99.90;;;;;;5068535;28;20353;-65
2022/08/25 06:06:24;;;;;;;23.70;6.80;;;24.90;99.90;;;;;;5067590;28;20360;-64
2022/08/25 06:08:51;;;;;;;26.27;6.90;;;25.00;99.90;;;;;;5066928;28;20213;-64
2022/08/25 06:11:19;;;;;;;20.35;6.20;;;25.10;99.90;;;;;;5070349;28;20569;-69
2022/08/25 06:13:46;;;;;;;21.10;6.45;;;25.30;99.90;;;;;;5068265;28;20209;-69
2022/08/25 06:16:12;;;;;;;26.38;6.45;;;25.30;99.90;;;;;;5071071;28;20216;-70
2022/08/25 06:18:39;;;;;;;18.95;6.70;;;25.40;99.90;;;;;;5068759;28;20209;-70
2022/08/25 06:21:11;;;;;;;17.65;6.50;;;25.50;99.90;;;;;;5061322;28;20205;-70
2022/08/25 06:23:40;;;;;;;25.65;6.50;;;25.50;99.90;;;;;;5064655;28;21079;-69
2022/08/25 06:26:10;;;;;;;15.38;6.07;;;25.60;99.90;;;;;;5061546;28;20235;-70
2022/08/25 06:28:37;;;;;;;20.60;6.60;;;25.60;99.90;;;;;;5064394;28;20666;-70
2022/08/25 06:31:04;;;;;;;21.85;6.40;;;25.60;99.90;;;;;;5064771;28;20235;-70
2022/08/25 06:33:31;;;;;;;23.67;6.57;;;25.70;99.90;;;;;;5065323;28;20591;-69
2022/08/25 06:35:58;;;;;;;21.70;6.13;;;25.70;99.90;;;;;;5064115;28;20248;-70
2022/08/25 06:38:26;;;;;;;23.63;6.38;;;25.70;99.90;;;;;;5065353;28;20309;-70
2022/08/25 06:40:56;;;;;;;21.83;6.43;;;25.70;99.90;;;;;;5068780;28;20205;-65
2022/08/25 06:43:23;;;;;;;22.92;6.38;;;25.80;99.90;;;;;;5060501;28;20240;-67
2022/08/25 06:45:50;;;;;;;16.98;5.40;;;26.00;99.90;;;;;;5058236;28;20217;-66
2022/08/25 06:48:17;;;;;;;23.05;6.00;;;26.10;99.90;;;;;;5056981;28;20315;-67
2022/08/25 06:50:44;;;;;;;17.63;5.50;;;26.20;99.90;;;;;;5059916;28;20202;-67
2022/08/25 06:53:12;;;;;;;19.65;5.97;;;26.30;99.90;;;;;;5057251;28;20210;-66
2022/08/25 06:55:39;;;;;;;18.20;5.85;;;26.30;99.90;;;;;;5057203;28;20209;-68
2022/08/25 06:58:08;;;;;;;25.73;6.55;;;26.50;99.90;;;;;;5062598;28;20206;-67
2022/08/25 07:00:35;;;;;;;25.83;6.68;;;26.50;99.90;;;;;;5063672;28;20719;-66
2022/08/25 07:03:03;;;;;;;20.88;6.35;;;26.50;99.90;;;;;;5060372;28;20836;-66
2022/08/25 07:05:30;;;;;;;19.10;6.15;;;26.60;99.90;;;;;;5057495;28;20813;-67
2022/08/25 07:08:00;;;;;;;17.05;5.68;;;26.60;99.90;;;;;;5062132;28;20202;-68
2022/08/25 07:10:27;;;;;;;19.75;6.25;;;26.80;99.90;;;;;;5062867;28;20207;-68
2022/08/25 07:12:54;;;;;;;13.40;5.60;;;27.00;99.90;;;;;;5068309;28;20205;-70
2022/08/25 07:15:22;;;;;;;20.40;5.90;;;27.10;99.90;;;;;;5060770;28;20216;-67
2022/08/25 07:17:50;;;;;;;22.73;6.25;;;27.30;99.90;;;;;;5071471;28;20216;-68
2022/08/25 07:20:17;;;;;;;22.42;6.55;;;27.40;99.90;;;;;;5072929;28;20240;-65
2022/08/25 07:22:44;;;;;;;20.40;6.05;;;27.50;99.90;;;;;;5070463;28;20225;-67
2022/08/25 07:25:11;;;;;;;21.30;5.75;;;27.60;99.90;;;;;;5057715;28;20213;-67
2022/08/25 07:27:39;;;;;;;16.35;6.28;;;27.80;99.90;;;;;;5063025;28;20217;-68
2022/08/25 07:30:08;;;;;;;19.63;5.80;;;28.00;99.90;;;;;;5058245;28;20212;-68
2022/08/25 07:32:36;;;;;;;22.95;6.25;;;28.20;99.90;;;;;;5066118;28;20283;-64
2022/08/25 07:35:14;;;;;;;22.73;6.85;;;28.30;99.90;;;;;;5066917;28;20701;-66
2022/08/25 07:37:42;;;;;;;28.25;7.00;;;28.40;99.90;;;;;;5068086;28;20244;-64
2022/08/25 07:40:10;;;;;;;29.17;9.07;;;28.50;99.90;;;;;;5071549;28;20220;-66
2022/08/25 07:42:37;;;;;;;26.10;8.82;;;28.70;99.90;;;;;;5070928;28;20216;-65
2022/08/25 07:45:05;;;;;;;23.02;6.88;;;28.90;99.90;;;;;;5068141;28;20209;-63
2022/08/25 07:47:32;;;;;;;23.23;7.13;;;29.00;99.90;;;;;;5067332;28;20296;-64
2022/08/25 07:50:00;;;;;;;17.92;6.72;;;29.10;99.90;;;;;;5070362;28;20266;-64
2022/08/25 07:52:27;;;;;;;20.60;6.25;;;29.20;99.90;;;;;;5072997;28;20209;-64
2022/08/25 07:54:55;;;;;;;21.17;6.00;;;29.30;99.90;;;;;;5063735;28;20556;-64
2022/08/25 07:57:25;;;;;;;18.48;6.47;;;29.50;99.90;;;;;;5071570;28;21751;-63
2022/08/25 07:59:51;;;;;;;21.13;6.28;;;29.60;99.90;;;;;;5069675;28;20221;-64
2022/08/25 08:02:19;;;;;;;21.95;6.13;;;29.90;99.90;;;;;;5061866;28;20221;-64
2022/08/25 08:04:47;;;;;;;28.35;6.72;;;30.10;99.90;;;;;;5070332;28;20250;-65
2022/08/25 08:07:16;;;;;;;22.70;6.25;;;30.20;99.90;;;;;;5056325;28;20209;-65
2022/08/25 08:09:43;;;;;;;20.75;6.47;;;30.30;99.90;;;;;;5069612;28;20198;-66
2022/08/25 08:12:10;;;;;;;22.50;6.30;;;30.40;99.90;;;;;;5070917;28;20209;-66
2022/08/25 08:14:37;;;;;;;20.90;6.38;;;30.50;99.90;;;;;;5069012;28;20205;-64
2022/08/25 08:17:06;;;;;;;23.00;6.47;;;30.60;99.90;;;;;;5067896;28;20225;-68
2022/08/25 08:19:34;;;;;;;18.83;6.82;;;30.80;99.90;;;;;;5067800;28;20225;-65
2022/08/25 08:22:02;;;;;;;23.95;5.75;;;31.00;99.90;;;;;;5069466;28;20679;-64
2022/08/25 08:24:33;;;;;;;16.35;6.60;;;31.20;99.90;;;;;;5067158;28;20205;-63
2022/08/25 08:27:01;;;;;;;26.33;7.28;;;31.20;99.10;;;;;;5071608;28;20205;-65
2022/08/25 08:29:28;;;;;;;20.73;5.60;;;31.40;98.30;;;;;;5070663;28;20288;-64
2022/08/25 08:31:55;;;;;;;18.35;6.18;;;31.40;97.80;;;;;;5062786;28;20241;-65
2022/08/25 08:34:22;;;;;;;20.10;6.07;;;31.50;97.20;;;;;;5064435;28;20201;-64
2022/08/25 08:36:49;;;;;;;19.30;5.88;;;31.70;96.90;;;;;;5064341;28;20291;-66
2022/08/25 08:39:16;;;;;;;22.08;5.60;;;31.90;95.60;;;;;;5070184;28;20232;-64
2022/08/25 08:45:06;;;;;;;18.50;5.95;;;32.20;94.50;;;;;;5061038;28;20354;-64
2022/08/25 08:47:46;;;;;;;20.70;5.97;;;32.40;93.60;;;;;;5062207;28;20220;-64
2022/08/25 08:50:25;;;;;;;19.35;5.35;;;32.50;92.90;;;;;;5065997;28;20205;-64
2022/08/25 08:52:58;;;;;;;21.00;5.30;;;32.70;92.10;;;;;;5063666;28;20209;-64
2022/08/25 08:55:31;;;;;;;20.52;6.00;;;33.00;91.40;;;;;;5070406;28;20262;-64
2022/08/25 08:58:02;;;;;;;18.55;5.95;;;33.00;90.60;;;;;;5065508;28;20201;-63
2022/08/25 09:00:31;;;;;;;20.38;5.63;;;33.30;90.00;;;;;;5064970;28;20220;-65
2022/08/25 09:03:03;;;;;;;18.05;5.00;;;33.40;88.90;;;;;;5060515;28;20221;-64
2022/08/25 09:05:32;;;;;;;20.88;5.55;;;33.40;87.50;;;;;;5065939;28;20201;-64
2022/08/25 09:08:02;;;;;;;21.00;6.03;;;33.40;87.50;;;;;;5065128;28;20204;-65
2022/08/25 09:10:40;;;;;;;19.77;4.78;;;33.40;86.70;;;;;;5062428;28;20204;-65
2022/08/25 09:13:17;;;;;;;18.90;4.90;;;33.50;84.10;;;;;;5065503;28;20197;-63
2022/08/25 09:18:46;;;;;;;14.13;5.00;;;33.70;79.70;;;;;;5063944;28;20189;-64
2022/08/25 09:21:18;;;;;;;11.18;4.40;;;33.70;76.50;;;;;;5063506;28;20257;-64
2022/08/25 09:23:59;;;;;;;18.65;5.28;;;33.80;76.50;;;;;;5058963;28;20705;-63
2022/08/25 09:26:32;;;;;;;15.50;5.13;;;33.90;75.50;;;;;;5066258;28;20237;-63
2022/08/25 09:29:08;;;;;;;14.05;4.82;;;34.20;75.90;;;;;;5064337;28;20201;-63
2022/08/25 09:31:37;;;;;;;16.38;5.07;;;34.50;75.00;;;;;;5058359;28;20198;-64
2022/08/25 09:34:11;;;;;;;16.52;5.18;;;34.80;74.70;;;;;;5064362;28;20291;-63
2022/08/25 09:36:38;;;;;;;18.73;4.85;;;35.10;74.00;;;;;;5061313;28;20260;-64
2022/08/25 09:39:05;;;;;;;11.93;3.70;;;35.40;72.10;;;;;;5064559;28;20541;-65
2022/08/25 09:41:46;;;;;;;13.25;4.35;;;35.40;67.40;;;;;;5066340;28;20478;-64
2022/08/25 09:44:26;;;;;;;15.30;4.68;;;35.30;66.30;;;;;;5068375;28;20932;-64
2022/08/25 09:47:00;;;;;;;14.57;4.45;;;35.20;65.80;;;;;;5068947;28;20198;-66
2022/08/25 09:49:36;;;;;;;12.85;3.97;;;35.20;65.10;;;;;;5064331;28;20567;-64
2022/08/25 09:52:25;;;;;;;11.13;3.75;;;35.50;64.60;;;;;;5066977;28;20285;-64
2022/08/25 09:54:53;;;;;;;12.98;4.10;;;35.60;64.10;;;;;;5066422;28;20217;-64
2022/08/25 09:57:33;;;;;;;13.75;4.32;;;35.70;64.50;;;;;;5069394;28;20208;-64
2022/08/25 10:00:18;;;;;;;9.93;3.75;;;36.20;63.70;;;;;;5064092;28;21182;-64
2022/08/25 10:03:00;;;;;;;10.13;4.72;;;36.50;61.70;;;;;;5065245;28;20212;-64
2022/08/25 10:05:30;;;;;;;15.27;4.55;;;36.80;61.20;;;;;;5065990;28;20616;-64
2022/08/25 10:07:59;;;;;;;9.82;4.32;;;36.90;58.20;;;;;;5061709;28;20554;-64
2022/08/25 10:10:30;;;;;;;13.85;3.80;;;36.70;56.40;;;;;;5059826;28;20599;-67
2022/08/25 10:12:59;;;;;;;11.25;3.90;;;36.60;57.30;;;;;;5066113;28;20231;-63
2022/08/25 10:15:32;;;;;;;14.18;4.55;;;36.80;57.30;;;;;;5070179;28;20205;-63
2022/08/25 10:18:24;;;;;;;10.13;4.03;;;36.90;56.30;;;;;;5063339;28;20209;-64
2022/08/25 10:21:16;;;;;;;12.75;4.20;;;36.90;56.40;;;;;;5054804;28;20716;-63
2022/08/25 10:23:47;;;;;;;17.58;4.82;;;36.90;55.70;;;;;;5061056;28;20949;-63
2022/08/25 10:26:28;;;;;;;7.85;3.47;;;36.90;56.10;;;;;;5061680;28;20212;-63
2022/08/25 10:29:05;;;;;;;7.35;3.50;;;37.20;54.90;;;;;;5058692;28;20208;-63
2022/08/25 10:31:37;;;;;;;5.88;3.05;;;37.60;53.40;;;;;;5063994;28;20560;-63
2022/08/25 10:34:22;;;;;;;6.45;2.70;;;37.70;51.90;;;;;;5064072;28;20295;-63
2022/08/25 10:37:02;;;;;;;6.43;2.60;;;37.60;48.80;;;;;;5055304;28;20242;-63
2022/08/25 10:39:38;;;;;;;4.72;2.30;;;37.70;47.60;;;;;;5064919;28;20552;-63
2022/08/25 10:42:18;;;;;;;5.70;2.30;;;37.60;44.30;;;;;;5057581;28;20683;-63
2022/08/25 10:47:50;;;;;;;7.25;2.60;;;37.50;44.70;;;;;;5060120;28;20196;-64
2022/08/25 10:50:28;;;;;;;8.75;3.05;;;37.50;44.60;;;;;;5065456;28;20202;-64
2022/08/25 10:53:13;;;;;;;5.93;3.15;;;37.60;44.90;;;;;;5071070;28;20251;-63
2022/08/25 10:55:48;;;;;;;6.82;2.63;;;37.50;43.20;;;;;;5071545;28;20650;-63
2022/08/25 10:58:23;;;;;;;7.63;2.90;;;37.40;43.10;;;;;;5071653;28;20709;-62
2022/08/25 11:00:58;;;;;;;13.15;2.83;;;37.40;42.80;;;;;;5072175;28;20692;-63
2022/08/25 11:03:49;;;;;;;8.50;2.63;;;37.40;43.40;;;;;;5071647;28;20653;-63
2022/08/25 11:06:20;;;;;;;7.00;2.70;;;37.20;42.80;;;;;;5058463;28;20208;-63
2022/08/25 11:08:52;;;;;;;10.80;3.10;;;37.10;42.80;;;;;;5060616;28;20228;-63
2022/08/25 11:11:26;;;;;;;5.90;2.35;;;37.10;42.70;;;;;;5067677;28;20201;-63
2022/08/25 11:13:59;;;;;;;10.40;3.30;;;37.20;43.30;;;;;;5070442;28;20674;-63
2022/08/25 11:16:36;;;;;;;6.85;2.88;;;37.40;43.50;;;;;;5063486;28;20212;-63
2022/08/25 11:19:13;;;;;;;8.68;3.35;;;37.70;43.30;;;;;;5070060;28;20205;-64
2022/08/25 11:21:48;;;;;;;8.38;3.08;;;37.80;43.20;;;;;;5072194;28;20570;-66
2022/08/25 11:24:32;;;;;;;8.68;2.72;;;38.00;43.20;;;;;;5066594;28;20200;-63
2022/08/25 11:26:59;;;;;;;8.70;2.65;;;38.00;42.80;;;;;;5064283;28;20205;-67
2022/08/25 11:29:32;;;;;;;10.15;2.90;;;38.00;42.30;;;;;;5069887;28;20587;-68
2022/08/25 11:32:00;;;;;;;8.65;2.47;;;38.00;42.70;;;;;;5063596;28;20210;-65
2022/08/25 11:34:32;;;;;;;6.70;3.17;;;38.00;42.40;;;;;;5073651;28;20689;-64
2022/08/25 11:37:06;;;;;;;7.05;2.60;;;38.10;42.10;;;;;;5069945;28;20241;-65
2022/08/25 11:40:05;;;;;;;6.53;2.40;;;38.00;41.40;;;;;;5063373;28;20208;-64
2022/08/25 11:42:44;;;;;;;5.55;2.58;;;37.90;41.50;;;;;;5052488;28;20309;-70
2022/08/25 11:45:22;;;;;;;5.72;2.55;;;37.80;41.30;;;;;;5072858;28;20197;-64
2022/08/25 11:48:03;;;;;;;4.25;2.28;;;37.90;41.60;;;;;;5059833;28;20666;-66
2022/08/25 11:50:34;;;;;;;8.05;2.80;;;38.00;40.80;;;;;;5069423;28;20201;-64
2022/08/25 11:53:17;;;;;;;3.15;2.30;;;37.90;40.90;;;;;;5072170;28;20204;-64
2022/08/25 11:55:49;;;;;;;7.47;2.60;;;37.90;40.80;;;;;;5060977;28;20201;-63
2022/08/25 11:58:43;;;;;;;9.85;2.63;;;37.80;40.60;;;;;;5064290;28;20201;-68
2022/08/25 12:01:33;;;;;;;8.32;2.38;;;37.80;40.50;;;;;;5066577;28;20307;-65
2022/08/25 12:04:15;;;;;;;10.48;2.28;;;37.80;40.10;;;;;;5067810;28;20299;-66
2022/08/25 12:07:19;;;;;;;13.00;2.45;;;37.80;39.80;;;;;;5063829;28;20206;-65
2022/08/25 12:10:09;;;;;;;7.22;2.25;;;37.80;39.10;;;;;;5054455;28;20657;-64
2022/08/25 12:12:38;;;;;;;6.78;2.40;;;37.70;39.10;;;;;;5055937;28;20287;-64
2022/08/25 12:15:20;;;;;;;7.03;2.38;;;37.80;39.10;;;;;;5067164;28;20215;-65
2022/08/25 12:18:12;;;;;;;6.75;2.30;;;37.80;39.00;;;;;;5065057;28;20574;-64
2022/08/25 12:21:12;;;;;;;7.53;2.10;;;37.80;39.00;;;;;;5063872;28;20221;-65
2022/08/25 12:23:41;;;;;;;7.25;2.38;;;37.70;38.60;;;;;;5065976;28;20590;-64
2022/08/25 12:26:16;;;;;;;3.67;2.17;;;37.60;38.30;;;;;;5056892;28;20587;-64
2022/08/25 12:28:58;;;;;;;6.00;2.10;;;37.40;38.10;;;;;;5063501;28;20383;-63
2022/08/25 12:31:52;;;;;;;5.35;2.38;;;37.10;38.60;;;;;;5068641;28;20216;-67
2022/08/25 12:34:37;;;;;;;4.03;2.00;;;36.90;39.00;;;;;;5051056;28;20206;-65
2022/08/25 12:37:10;;;;;;;3.45;2.25;;;37.00;39.00;;;;;;5063762;28;20197;-64
2022/08/25 12:39:44;;;;;;;2.95;1.80;;;36.90;38.00;;;;;;5068918;28;20201;-65
2022/08/25 12:42:23;;;;;;;4.65;2.03;;;37.00;38.10;;;;;;5070892;28;20874;-65
2022/08/25 12:45:12;;;;;;;2.75;2.10;;;36.90;37.70;;;;;;5061658;28;20681;-65
2022/08/25 12:47:41;;;;;;;4.20;2.10;;;36.90;37.80;;;;;;5043413;28;20292;-66
2022/08/25 12:50:41;;;;;;;8.15;2.20;;;36.90;37.90;;;;;;5050634;28;20210;-65
2022/08/25 12:53:13;;;;;;;8.80;2.90;;;36.80;37.70;;;;;;5012682;28;20199;-65
2022/08/25 12:55:46;;;;;;;6.00;2.15;;;36.90;37.80;;;;;;5042194;28;20206;-65
2022/08/25 12:58:13;;;;;;;5.50;1.92;;;36.90;37.60;;;;;;5046458;28;20328;-65
2022/08/25 13:01:05;;;;;;;6.78;2.20;;;37.00;37.60;;;;;;5049457;28;20561;-65
2022/08/25 13:04:00;;;;;;;5.57;2.00;;;37.00;37.50;;;;;;5040810;28;20245;-65
2022/08/25 13:06:52;;;;;;;4.25;1.90;;;36.80;37.20;;;;;;5043851;28;20197;-66
2022/08/25 13:09:58;;;;;;;9.52;2.22;;;36.70;37.30;;;;;;5035039;28;20206;-65
2022/08/25 13:12:30;;;;;;;6.47;2.30;;;36.70;37.50;;;;;;5045684;28;20205;-65
2022/08/25 13:14:59;;;;;;;4.03;1.90;;;36.50;37.70;;;;;;5048034;28;20206;-65